Terminal Aerodrome Forecast
Issued by NWS Cleveland, OH

Home | Current Version | Previous Version | Graphics & Text | Print | Product List | Glossary On
Versions: 1 2 3 4 5 6 7 8 9 10 11 12 13 14 15 16 17 18 19
000
FTUS41 KCLE 251400 AAA
TAFYNG
TAF AMD
KYNG 251415Z 2514/2612 24012KT P6SM -SN OVC025
     FM251500 29008KT P6SM SCT035
      TEMPO 2515/2518 BKN035
     FM252000 34004KT P6SM BKN250
     FM260300 02006KT P6SM OVC100=

USA.gov is the U.S. government's official web portal to all federal, state and local government web resources and services.